createdAt,value
2022-08-23T00:01:00.224Z,88.60
2022-08-23T00:03:47.590Z,88.70
2022-08-23T00:06:35.687Z,88.80
2022-08-23T00:09:25.939Z,89.00
2022-08-23T00:12:18.022Z,89.20
2022-08-23T00:15:07.308Z,89.30
2022-08-23T00:17:55.179Z,89.40
2022-08-23T00:20:42.375Z,89.60
2022-08-23T00:23:29.405Z,89.80
2022-08-23T00:26:17.948Z,89.90
2022-08-23T00:29:06.637Z,90.00
2022-08-23T00:31:54.320Z,90.00
2022-08-23T00:34:41.989Z,90.10
2022-08-23T00:37:31.358Z,90.10
2022-08-23T00:40:20.169Z,90.10
2022-08-23T00:43:25.265Z,90.10
2022-08-23T00:46:41.588Z,90.20
2022-08-23T00:49:28.603Z,90.20
2022-08-23T00:52:22.332Z,90.30
2022-08-23T00:55:08.010Z,90.30
2022-08-23T00:57:56.484Z,90.10
2022-08-23T01:00:43.314Z,90.50
2022-08-23T01:03:38.792Z,90.50
2022-08-23T01:06:36.313Z,90.50
2022-08-23T01:09:23.798Z,90.60
2022-08-23T01:12:19.195Z,90.60
2022-08-23T01:15:25.026Z,90.60
2022-08-23T01:18:14.619Z,90.70
2022-08-23T01:21:06.798Z,90.70
2022-08-23T01:24:03.368Z,90.80
2022-08-23T01:26:50.727Z,90.90
2022-08-23T01:29:37.759Z,90.60
2022-08-23T01:32:25.773Z,91.10
2022-08-23T01:35:14.381Z,91.10
2022-08-23T01:38:01.983Z,91.10
2022-08-23T01:40:51.931Z,91.10
2022-08-23T01:43:39.672Z,91.20
2022-08-23T01:46:28.332Z,91.20
2022-08-23T01:49:17.603Z,91.30
2022-08-23T01:52:05.902Z,91.30
2022-08-23T01:54:53.380Z,91.40
2022-08-23T01:57:47.771Z,91.40
2022-08-23T02:00:39.900Z,91.40
2022-08-23T02:03:29.359Z,91.40
2022-08-23T02:06:17.068Z,91.50
2022-08-23T02:09:06.025Z,91.40
2022-08-23T02:12:06.878Z,91.50
2022-08-23T02:14:56.960Z,91.40
2022-08-23T02:17:47.300Z,91.40
2022-08-23T02:20:35.023Z,91.40
2022-08-23T02:23:25.283Z,91.40
2022-08-23T02:26:13.180Z,91.50
2022-08-23T02:29:06.545Z,91.60
2022-08-23T02:31:55.730Z,91.50
2022-08-23T02:34:44.511Z,91.60
2022-08-23T02:37:39.383Z,91.70
2022-08-23T02:40:26.388Z,91.80
2022-08-23T02:43:13.876Z,91.80
2022-08-23T02:46:01.544Z,91.90
2022-08-23T02:48:51.104Z,91.90
2022-08-23T02:51:39.761Z,92.00
2022-08-23T02:54:27.107Z,91.90
2022-08-23T02:57:13.827Z,92.00
2022-08-23T03:00:01.457Z,91.90
2022-08-23T03:02:52.013Z,91.90
2022-08-23T03:05:41.159Z,92.00
2022-08-23T03:08:27.968Z,92.10
2022-08-23T03:11:18.142Z,92.00
2022-08-23T03:14:07.479Z,92.10
2022-08-23T03:16:57.442Z,92.00
2022-08-23T03:19:45.470Z,92.00
2022-08-23T03:22:34.453Z,92.10
2022-08-23T03:25:21.869Z,92.00
2022-08-23T03:28:21.822Z,92.00
2022-08-23T03:31:10.734Z,92.10
2022-08-23T03:34:07.354Z,92.10
2022-08-23T03:36:54.705Z,92.20
2022-08-23T03:39:43.151Z,92.30
2022-08-23T03:42:31.223Z,92.30
2022-08-23T03:45:22.417Z,92.20
2022-08-23T03:48:10.351Z,92.30
2022-08-23T03:50:57.867Z,92.40
2022-08-23T03:53:46.732Z,92.50
2022-08-23T03:56:38.166Z,92.50
2022-08-23T03:59:25.051Z,92.60
2022-08-23T04:02:12.252Z,92.50
2022-08-23T04:04:59.501Z,92.50
2022-08-23T04:08:11.743Z,92.60
2022-08-23T04:10:58.923Z,92.60
2022-08-23T04:13:47.273Z,92.70
2022-08-23T04:16:37.663Z,92.60
2022-08-23T04:19:25.388Z,92.70
2022-08-23T04:22:21.525Z,92.70
2022-08-23T04:25:32.366Z,92.60
2022-08-23T04:28:17.047Z,92.60
2022-08-23T04:31:06.428Z,92.70
2022-08-23T04:33:54.828Z,92.70
2022-08-23T04:36:47.859Z,92.70
2022-08-23T04:39:55.013Z,93.20
2022-08-23T04:42:42.846Z,92.80
2022-08-23T04:45:32.701Z,92.90
2022-08-23T04:48:21.369Z,92.90
2022-08-23T04:51:10.232Z,92.90
2022-08-23T04:53:58.621Z,93.00
2022-08-23T04:57:05.534Z,93.00
2022-08-23T04:59:55.045Z,93.00
2022-08-23T05:02:42.723Z,93.10
2022-08-23T05:05:32.396Z,93.20
2022-08-23T05:08:20.063Z,93.20
2022-08-23T05:11:09.443Z,93.30
2022-08-23T05:13:57.747Z,93.40
2022-08-23T05:16:44.769Z,93.50
2022-08-23T05:19:31.644Z,93.60
2022-08-23T05:22:21.069Z,94.00
2022-08-23T05:25:49.093Z,93.80
2022-08-23T05:28:48.952Z,93.90
2022-08-23T05:31:38.289Z,94.00
2022-08-23T05:34:25.591Z,94.10
2022-08-23T05:37:16.719Z,94.20
2022-08-23T05:40:05.718Z,94.40
2022-08-23T05:42:59.719Z,94.40
2022-08-23T05:45:47.120Z,94.40
2022-08-23T05:48:36.501Z,94.40
2022-08-23T05:51:28.965Z,94.50
2022-08-23T05:54:16.915Z,94.40
2022-08-23T05:57:10.643Z,94.40
2022-08-23T06:00:00.682Z,94.40
2022-08-23T06:02:49.267Z,94.10
2022-08-23T06:05:42.359Z,94.00
2022-08-23T06:08:35.202Z,94.10
2022-08-23T06:11:24.766Z,94.00
2022-08-23T06:14:14.521Z,93.90
2022-08-23T06:17:03.608Z,93.80
2022-08-23T06:19:50.995Z,93.70
2022-08-23T06:22:45.003Z,93.50
2022-08-23T06:25:32.457Z,93.40
2022-08-23T06:28:30.074Z,93.30
2022-08-23T06:31:40.100Z,93.30
2022-08-23T06:34:33.825Z,93.20
2022-08-23T06:37:40.783Z,93.10
2022-08-23T06:40:48.210Z,93.00
2022-08-23T06:43:55.000Z,92.60
2022-08-23T06:46:43.521Z,92.70
2022-08-23T06:49:30.757Z,92.40
2022-08-23T06:52:18.575Z,91.90
2022-08-23T06:55:14.587Z,91.40
2022-08-23T06:58:13.256Z,91.20
2022-08-23T07:01:44.685Z,90.90
2022-08-23T07:04:41.457Z,90.40
2022-08-23T07:07:48.444Z,90.20
2022-08-23T07:10:35.556Z,90.10
2022-08-23T07:13:22.805Z,90.20
2022-08-23T07:16:10.149Z,88.30
2022-08-23T07:18:57.370Z,87.70
2022-08-23T07:21:45.989Z,86.50
2022-08-23T07:24:35.839Z,85.60
2022-08-23T07:27:24.015Z,84.90
2022-08-23T07:30:18.720Z,84.00
2022-08-23T07:33:07.320Z,83.10
2022-08-23T07:35:58.020Z,82.90
2022-08-23T07:38:47.951Z,82.10
2022-08-23T07:41:38.833Z,81.50
2022-08-23T07:44:27.504Z,80.70
2022-08-23T07:47:15.144Z,79.40
2022-08-23T07:50:02.324Z,78.70
2022-08-23T07:52:52.215Z,78.20
2022-08-23T07:55:42.080Z,77.80
2022-08-23T07:58:50.252Z,77.30
2022-08-23T08:01:52.821Z,76.60
2022-08-23T08:04:39.915Z,76.40
2022-08-23T08:07:27.553Z,76.30
2022-08-23T08:10:20.991Z,74.80
2022-08-23T08:13:11.307Z,73.80
2022-08-23T08:15:58.714Z,72.90
2022-08-23T08:18:49.225Z,72.00
2022-08-23T08:21:56.639Z,70.90
2022-08-23T08:25:03.415Z,70.20
2022-08-23T08:27:50.467Z,69.90
2022-08-23T08:30:39.268Z,68.40
2022-08-23T08:33:30.685Z,66.70
2022-08-23T08:36:36.359Z,65.70
2022-08-23T08:39:30.498Z,64.90
2022-08-23T08:42:34.546Z,63.80
2022-08-23T08:45:27.020Z,63.00
2022-08-23T08:48:23.633Z,62.60
2022-08-23T08:51:21.701Z,61.20
2022-08-23T08:54:14.139Z,60.40
2022-08-23T08:57:07.787Z,59.60
2022-08-23T09:00:07.277Z,58.10
2022-08-23T09:02:59.844Z,58.40
2022-08-23T09:05:56.397Z,58.40
2022-08-23T09:08:58.216Z,57.90
2022-08-23T09:11:56.771Z,56.50
2022-08-23T09:14:57.370Z,56.10
2022-08-23T09:17:50.887Z,55.30
2022-08-23T09:20:40.321Z,55.10
2022-08-23T09:23:35.911Z,53.10
2022-08-23T09:26:30.380Z,52.00
2022-08-23T09:29:24.139Z,51.70
2022-08-23T09:32:30.382Z,50.90
2022-08-23T09:35:20.391Z,50.20
2022-08-23T09:38:20.969Z,49.80
2022-08-23T09:41:20.844Z,50.20
2022-08-23T09:44:16.470Z,48.40
2022-08-23T09:47:08.675Z,48.20
2022-08-23T09:50:10.864Z,48.70
2022-08-23T09:53:04.463Z,47.90
2022-08-23T09:55:56.433Z,47.80
2022-08-23T09:58:51.199Z,46.90
2022-08-23T10:01:52.043Z,45.90
2022-08-23T10:04:46.189Z,46.90
2022-08-23T10:07:40.310Z,45.70
2022-08-23T10:10:37.802Z,46.00
2022-08-23T10:13:27.825Z,44.80
2022-08-23T10:16:29.189Z,44.50
2022-08-23T10:19:31.107Z,45.50
2022-08-23T10:22:23.267Z,45.10
2022-08-23T10:25:34.696Z,45.00
2022-08-23T10:28:49.894Z,46.40
2022-08-23T10:31:46.943Z,47.00
2022-08-23T10:34:50.851Z,46.20
2022-08-23T10:37:53.572Z,46.60
2022-08-23T10:40:52.167Z,46.10
2022-08-23T10:43:46.534Z,46.40
2022-08-23T10:46:46.459Z,46.90
2022-08-23T10:49:37.877Z,46.40
2022-08-23T10:52:31.226Z,44.70
2022-08-23T10:55:36.875Z,44.70
2022-08-23T10:58:29.236Z,44.30
2022-08-23T11:01:22.901Z,45.20
2022-08-23T11:04:26.513Z,45.30
2022-08-23T11:07:37.337Z,45.80
2022-08-23T11:10:56.134Z,43.70
2022-08-23T11:13:55.042Z,42.50
2022-08-23T11:16:48.791Z,42.10
2022-08-23T11:19:53.737Z,43.30
2022-08-23T11:23:13.041Z,43.30
2022-08-23T11:26:00.525Z,42.30
2022-08-23T11:28:47.982Z,43.00
2022-08-23T11:31:39.800Z,42.70
2022-08-23T11:34:32.116Z,42.20
2022-08-23T11:37:49.271Z,42.30
2022-08-23T11:40:59.950Z,41.50
2022-08-23T11:44:23.011Z,42.80
2022-08-23T11:47:12.548Z,41.10
2022-08-23T11:50:19.400Z,41.50
2022-08-23T11:53:31.789Z,42.20
2022-08-23T11:56:34.113Z,41.50
2022-08-23T11:59:41.656Z,41.90
2022-08-23T12:02:37.233Z,43.50
2022-08-23T12:05:42.322Z,42.00
2022-08-23T12:08:46.756Z,41.30
2022-08-23T12:12:03.563Z,40.00
2022-08-23T12:14:50.796Z,40.00
2022-08-23T12:17:58.510Z,41.10
2022-08-23T12:20:48.326Z,41.50
2022-08-23T12:23:49.038Z,42.10
2022-08-23T12:26:46.682Z,41.90
2022-08-23T12:29:48.501Z,42.10
2022-08-23T12:32:44.315Z,41.20
2022-08-23T12:35:40.384Z,40.80
2022-08-23T12:38:47.072Z,41.30
2022-08-23T12:41:51.362Z,41.10
2022-08-23T12:44:38.740Z,40.50
2022-08-23T12:47:26.412Z,40.50
2022-08-23T12:50:26.103Z,41.70
2022-08-23T12:53:30.015Z,41.80
2022-08-23T12:56:22.809Z,41.40
2022-08-23T12:59:37.625Z,41.00
2022-08-23T13:02:27.795Z,40.00
2022-08-23T13:05:23.877Z,40.20
2022-08-23T13:08:15.016Z,41.40
2022-08-23T13:11:07.659Z,40.30
2022-08-23T13:13:55.408Z,40.80
2022-08-23T13:16:46.952Z,41.10
2022-08-23T13:19:34.872Z,40.00
2022-08-23T13:22:25.122Z,41.60
2022-08-23T13:25:29.228Z,40.40
2022-08-23T13:28:24.212Z,41.80
2022-08-23T13:31:11.059Z,41.90
2022-08-23T13:33:59.466Z,42.00
2022-08-23T13:36:49.115Z,42.10
2022-08-23T13:39:39.625Z,40.90
2022-08-23T13:42:32.260Z,41.40
2022-08-23T13:45:22.898Z,41.40
2022-08-23T13:48:14.096Z,39.90
2022-08-23T13:51:21.875Z,41.60
2022-08-23T13:54:08.551Z,41.20
2022-08-23T13:57:00.478Z,41.70
2022-08-23T13:59:52.848Z,41.40
2022-08-23T14:02:40.795Z,41.70
2022-08-23T14:05:27.873Z,42.30
2022-08-23T14:08:21.623Z,41.00
2022-08-23T14:11:10.663Z,41.80
2022-08-23T14:13:57.577Z,40.40
2022-08-23T14:16:44.723Z,43.30
2022-08-23T14:22:40.716Z,41.00
2022-08-23T14:25:29.916Z,41.50
2022-08-23T14:28:18.782Z,40.50
2022-08-23T14:31:05.882Z,42.70
2022-08-23T14:33:55.272Z,41.90
2022-08-23T14:38:00.308Z,42.10
2022-08-23T14:39:52.613Z,43.10
2022-08-23T14:42:40.996Z,42.80
2022-08-23T14:45:27.846Z,41.10
2022-08-23T14:48:15.051Z,40.50
2022-08-23T14:51:02.442Z,40.90
2022-08-23T14:53:49.503Z,40.30
2022-08-23T14:56:36.714Z,40.50
2022-08-23T14:59:26.339Z,41.70
2022-08-23T15:02:20.399Z,41.50
2022-08-23T15:05:09.017Z,42.80
2022-08-23T15:07:56.170Z,41.90
2022-08-23T15:11:33.198Z,40.80
2022-08-23T15:13:55.321Z,40.00
2022-08-23T15:16:44.695Z,39.60
2022-08-23T15:19:31.864Z,39.60
2022-08-23T15:22:21.747Z,39.20
2022-08-23T15:25:10.212Z,39.70
2022-08-23T15:27:57.660Z,40.00
2022-08-23T15:30:47.040Z,40.40
2022-08-23T15:33:35.591Z,39.50
2022-08-23T15:36:22.885Z,39.60
2022-08-23T15:39:11.410Z,40.00
2022-08-23T15:41:58.656Z,40.00
2022-08-23T15:44:45.515Z,39.20
2022-08-23T15:47:37.981Z,40.30
2022-08-23T15:50:31.342Z,39.20
2022-08-23T15:53:18.508Z,39.70
2022-08-23T15:56:11.130Z,39.90
2022-08-23T15:58:58.548Z,39.40
2022-08-23T16:01:46.083Z,40.30
2022-08-23T16:04:35.994Z,40.30
2022-08-23T16:07:24.802Z,40.00
2022-08-23T16:10:14.512Z,40.80
2022-08-23T16:13:01.776Z,40.70
2022-08-23T16:15:49.232Z,41.20
2022-08-23T16:18:36.069Z,41.30
2022-08-23T16:21:25.263Z,42.00
2022-08-23T16:24:14.281Z,42.10
2022-08-23T16:27:01.231Z,42.70
2022-08-23T16:29:48.486Z,42.60
2022-08-23T16:32:35.890Z,42.50
2022-08-23T16:35:22.959Z,41.80
2022-08-23T16:38:12.772Z,42.90
2022-08-23T16:41:01.624Z,42.70
2022-08-23T16:43:49.040Z,43.70
2022-08-23T16:46:36.452Z,43.50
2022-08-23T16:49:23.410Z,43.80
2022-08-23T16:52:11.912Z,44.30
2022-08-23T16:54:59.277Z,43.90
2022-08-23T16:57:48.215Z,45.20
2022-08-23T17:00:36.572Z,44.00
2022-08-23T17:03:27.196Z,45.20
2022-08-23T17:06:15.168Z,44.10
2022-08-23T17:09:02.982Z,44.50
2022-08-23T17:11:52.374Z,44.50
2022-08-23T17:14:41.262Z,45.40
2022-08-23T17:17:28.358Z,45.60
2022-08-23T17:20:17.242Z,45.10
2022-08-23T17:23:05.952Z,44.80
2022-08-23T17:25:53.422Z,46.30
2022-08-23T17:28:40.374Z,47.90
2022-08-23T17:31:29.225Z,50.10
2022-08-23T17:34:16.507Z,50.60
2022-08-23T17:37:03.558Z,50.90
2022-08-23T17:39:51.329Z,50.90
2022-08-23T17:42:40.956Z,51.30
2022-08-23T17:45:28.991Z,51.60
2022-08-23T17:48:19.509Z,52.70
2022-08-23T17:51:06.521Z,51.90
2022-08-23T17:53:53.633Z,52.40
2022-08-23T17:56:40.559Z,53.00
2022-08-23T17:59:28.810Z,53.90
2022-08-23T18:02:16.511Z,53.60
2022-08-23T18:05:05.458Z,53.90
2022-08-23T18:07:52.943Z,53.90
2022-08-23T18:10:40.268Z,54.60
2022-08-23T18:13:27.307Z,54.70
2022-08-23T18:16:14.532Z,54.70
2022-08-23T18:19:03.387Z,55.10
2022-08-23T18:21:51.578Z,56.20
2022-08-23T18:24:38.817Z,56.00
2022-08-23T18:27:39.561Z,56.70
2022-08-23T18:30:25.742Z,57.40
2022-08-23T18:33:12.661Z,57.40
2022-08-23T18:36:00.093Z,58.00
2022-08-23T18:38:48.672Z,57.60
2022-08-23T18:41:35.715Z,58.10
2022-08-23T18:44:23.200Z,58.30
2022-08-23T18:47:10.468Z,58.60
2022-08-23T18:49:57.677Z,59.40
2022-08-23T18:52:45.197Z,59.80
2022-08-23T18:55:33.987Z,60.40
2022-08-23T18:58:22.908Z,60.50
2022-08-23T19:01:22.530Z,61.10
2022-08-23T19:04:11.201Z,62.10
2022-08-23T19:06:58.505Z,63.20
2022-08-23T19:09:46.023Z,63.60
2022-08-23T19:12:34.690Z,65.10
2022-08-23T19:15:24.880Z,64.60
2022-08-23T19:18:16.015Z,64.60
2022-08-23T19:21:04.926Z,65.10
2022-08-23T19:23:54.200Z,65.70
2022-08-23T19:26:44.457Z,66.30
2022-08-23T19:29:33.180Z,66.60
2022-08-23T19:32:20.134Z,67.20
2022-08-23T19:35:09.407Z,67.30
2022-08-23T19:37:56.491Z,67.70
2022-08-23T19:40:44.210Z,68.20
2022-08-23T19:43:31.590Z,69.10
2022-08-23T19:46:20.354Z,69.70
2022-08-23T19:49:07.347Z,70.30
2022-08-23T19:51:54.343Z,70.60
2022-08-23T19:54:42.062Z,71.40
2022-08-23T19:57:32.956Z,71.80
2022-08-23T20:00:20.078Z,72.20
2022-08-23T20:03:08.542Z,72.60
2022-08-23T20:05:55.796Z,73.00
2022-08-23T20:08:42.781Z,73.20
2022-08-23T20:11:29.671Z,73.60
2022-08-23T20:14:16.969Z,74.00
2022-08-23T20:17:07.289Z,74.20
2022-08-23T20:19:55.801Z,74.60
2022-08-23T20:22:56.796Z,75.00
2022-08-23T20:25:42.912Z,75.30
2022-08-23T20:28:28.735Z,75.40
2022-08-23T20:31:17.571Z,75.80
2022-08-23T20:34:06.565Z,76.40
2022-08-23T20:36:56.149Z,76.50
2022-08-23T20:39:43.611Z,76.60
2022-08-23T20:42:30.736Z,77.10
2022-08-23T20:45:17.827Z,77.40
2022-08-23T20:48:05.166Z,77.50
2022-08-23T20:50:59.610Z,77.80
2022-08-23T20:53:48.727Z,77.00
2022-08-23T20:56:37.051Z,78.50
2022-08-23T20:59:23.901Z,78.80
2022-08-23T21:02:11.020Z,79.00
2022-08-23T21:04:57.850Z,79.00
2022-08-23T21:07:44.956Z,79.30
2022-08-23T21:10:33.840Z,79.50
2022-08-23T21:13:20.674Z,79.60
2022-08-23T21:16:09.418Z,79.80
2022-08-23T21:18:56.917Z,80.10
2022-08-23T21:21:44.523Z,80.20
2022-08-23T21:24:32.264Z,80.40
2022-08-23T21:27:20.934Z,80.60
2022-08-23T21:30:10.420Z,80.90
2022-08-23T21:32:57.297Z,81.20
2022-08-23T21:35:44.361Z,81.40
2022-08-23T21:38:31.898Z,81.90
2022-08-23T21:41:36.162Z,82.00
2022-08-23T21:44:25.291Z,81.90
2022-08-23T21:47:12.490Z,82.40
2022-08-23T21:49:59.556Z,82.60
2022-08-23T21:52:54.629Z,82.80
2022-08-23T21:55:44.405Z,82.80
2022-08-23T21:58:32.905Z,83.10
2022-08-23T22:01:21.376Z,83.10
2022-08-23T22:04:10.226Z,83.40
2022-08-23T22:07:00.841Z,83.40
2022-08-23T22:09:48.650Z,83.60
2022-08-23T22:12:35.398Z,83.80
2022-08-23T22:15:22.359Z,84.10
2022-08-23T22:18:11.119Z,84.20
2022-08-23T22:20:59.401Z,84.20
2022-08-23T22:23:46.520Z,84.00
2022-08-23T22:26:33.760Z,84.10
2022-08-23T22:29:21.161Z,83.90
2022-08-23T22:32:08.744Z,83.70
2022-08-23T22:34:58.075Z,84.00
2022-08-23T22:38:03.628Z,83.80
2022-08-23T22:40:53.875Z,83.30
2022-08-23T22:43:41.107Z,83.60
2022-08-23T22:46:29.407Z,84.00
2022-08-23T22:49:19.696Z,84.20
2022-08-23T22:52:08.604Z,84.20
2022-08-23T22:54:55.716Z,84.30
2022-08-23T22:57:43.091Z,84.70
2022-08-23T23:00:30.238Z,85.00
2022-08-23T23:03:18.748Z,84.60
2022-08-23T23:06:05.701Z,84.80
2022-08-23T23:08:54.892Z,84.90
2022-08-23T23:11:43.188Z,84.70
2022-08-23T23:14:30.003Z,84.70
2022-08-23T23:17:17.221Z,84.90
2022-08-23T23:20:19.075Z,85.10
2022-08-23T23:23:05.134Z,85.20
2022-08-23T23:25:52.355Z,85.30
2022-08-23T23:28:39.575Z,85.50
2022-08-23T23:31:27.011Z,85.50
2022-08-23T23:34:14.268Z,85.90
2022-08-23T23:37:01.259Z,86.10
2022-08-23T23:39:49.936Z,85.90
2022-08-23T23:42:39.056Z,86.20
2022-08-23T23:45:26.018Z,86.20
2022-08-23T23:48:12.919Z,86.30
2022-08-23T23:50:59.770Z,86.20
2022-08-23T23:53:47.509Z,86.50
2022-08-23T23:56:34.434Z,86.60
2022-08-23T23:59:22.700Z,86.80
